sensor_id;sensor_type;location;lat;lon;timestamp;pressure;altitude;pressure_sealevel;temperature;humidity
70015;BME280;57358;51.094;6.760;2022-11-10T00:01:07;101398.97;;;9.33;100.00
70015;BME280;57358;51.094;6.760;2022-11-10T00:03:34;101303.94;;;8.81;100.00
70015;BME280;57358;51.094;6.760;2022-11-10T00:06:03;101397.81;;;9.40;100.00
70015;BME280;57358;51.094;6.760;2022-11-10T00:08:29;101293.34;;;8.84;100.00
70015;BME280;57358;51.094;6.760;2022-11-10T00:10:56;101352.41;;;9.16;100.00
70015;BME280;57358;51.094;6.760;2022-11-10T00:13:28;101302.19;;;8.81;100.00
70015;BME280;57358;51.094;6.760;2022-11-10T00:15:58;101316.22;;;8.78;100.00
70015;BME280;57358;51.094;6.760;2022-11-10T00:18:43;101406.84;;;9.33;100.00
70015;BME280;57358;51.094;6.760;2022-11-10T00:21:11;101331.56;;;8.89;100.00
70015;BME280;57358;51.094;6.760;2022-11-10T00:23:38;101322.69;;;8.93;100.00
70015;BME280;57358;51.094;6.760;2022-11-10T00:26:10;101403.19;;;9.37;100.00
70015;BME280;57358;51.094;6.760;2022-11-10T00:28:37;101380.16;;;9.22;100.00
70015;BME280;57358;51.094;6.760;2022-11-10T00:31:05;101262.94;;;8.56;100.00
70015;BME280;57358;51.094;6.760;2022-11-10T00:33:36;101399.94;;;9.30;100.00
70015;BME280;57358;51.094;6.760;2022-11-10T00:36:03;101381.34;;;9.13;100.00
70015;BME280;57358;51.094;6.760;2022-11-10T00:38:30;101300.84;;;8.69;100.00
70015;BME280;57358;51.094;6.760;2022-11-10T00:40:58;101305.53;;;8.59;100.00
70015;BME280;57358;51.094;6.760;2022-11-10T00:43:25;101298.00;;;8.50;100.00
70015;BME280;57358;51.094;6.760;2022-11-10T00:45:52;101374.03;;;8.97;100.00
70015;BME280;57358;51.094;6.760;2022-11-10T00:48:18;101351.41;;;8.70;100.00
70015;BME280;57358;51.094;6.760;2022-11-10T00:50:45;101389.03;;;8.92;100.00
70015;BME280;57358;51.094;6.760;2022-11-10T00:53:12;101307.00;;;8.42;100.00
70015;BME280;57358;51.094;6.760;2022-11-10T00:55:39;101400.97;;;9.01;100.00
70015;BME280;57358;51.094;6.760;2022-11-10T00:58:06;101383.09;;;8.87;100.00
70015;BME280;57358;51.094;6.760;2022-11-10T01:00:33;101418.19;;;8.82;100.00
70015;BME280;57358;51.094;6.760;2022-11-10T01:03:00;101392.22;;;8.75;100.00
70015;BME280;57358;51.094;6.760;2022-11-10T01:05:28;101354.22;;;8.37;100.00
70015;BME280;57358;51.094;6.760;2022-11-10T01:07:56;101358.38;;;8.44;100.00
70015;BME280;57358;51.094;6.760;2022-11-10T01:10:23;101328.41;;;8.26;100.00
70015;BME280;57358;51.094;6.760;2022-11-10T01:12:50;101299.91;;;8.18;100.00
70015;BME280;57358;51.094;6.760;2022-11-10T01:15:16;101347.81;;;8.47;100.00
70015;BME280;57358;51.094;6.760;2022-11-10T01:17:45;101392.34;;;8.72;100.00
70015;BME280;57358;51.094;6.760;2022-11-10T01:20:12;101370.13;;;8.57;100.00
70015;BME280;57358;51.094;6.760;2022-11-10T01:22:38;101388.25;;;8.64;100.00
70015;BME280;57358;51.094;6.760;2022-11-10T01:25:06;101398.66;;;8.65;100.00
70015;BME280;57358;51.094;6.760;2022-11-10T01:27:33;101364.16;;;8.54;100.00
70015;BME280;57358;51.094;6.760;2022-11-10T01:29:59;101350.75;;;8.63;100.00
70015;BME280;57358;51.094;6.760;2022-11-10T01:32:26;101332.53;;;8.33;100.00
70015;BME280;57358;51.094;6.760;2022-11-10T01:34:52;101307.53;;;8.25;100.00
70015;BME280;57358;51.094;6.760;2022-11-10T01:37:18;101416.81;;;8.70;100.00
70015;BME280;57358;51.094;6.760;2022-11-10T01:39:45;101321.50;;;8.24;100.00
70015;BME280;57358;51.094;6.760;2022-11-10T01:42:11;101319.78;;;8.24;100.00
70015;BME280;57358;51.094;6.760;2022-11-10T01:44:39;101409.13;;;8.65;100.00
70015;BME280;57358;51.094;6.760;2022-11-10T01:47:06;101376.38;;;8.53;100.00
70015;BME280;57358;51.094;6.760;2022-11-10T01:49:33;101397.88;;;8.63;100.00
70015;BME280;57358;51.094;6.760;2022-11-10T01:52:09;101393.13;;;8.74;100.00
70015;BME280;57358;51.094;6.760;2022-11-10T01:54:40;101396.84;;;8.67;100.00
70015;BME280;57358;51.094;6.760;2022-11-10T01:57:10;101345.03;;;8.24;100.00
70015;BME280;57358;51.094;6.760;2022-11-10T01:59:41;101385.91;;;8.56;100.00
70015;BME280;57358;51.094;6.760;2022-11-10T02:04:57;101405.72;;;8.63;100.00
70015;BME280;57358;51.094;6.760;2022-11-10T02:07:25;101380.25;;;8.42;100.00
70015;BME280;57358;51.094;6.760;2022-11-10T02:09:52;101410.25;;;8.58;100.00
70015;BME280;57358;51.094;6.760;2022-11-10T02:12:19;101392.69;;;8.33;100.00
70015;BME280;57358;51.094;6.760;2022-11-10T02:15:02;101285.56;;;7.75;100.00
70015;BME280;57358;51.094;6.760;2022-11-10T02:17:29;101375.34;;;8.31;100.00
70015;BME280;57358;51.094;6.760;2022-11-10T02:20:06;101358.44;;;8.14;100.00
70015;BME280;57358;51.094;6.760;2022-11-10T02:22:33;101392.59;;;8.36;100.00
70015;BME280;57358;51.094;6.760;2022-11-10T02:24:59;101409.00;;;8.42;100.00
70015;BME280;57358;51.094;6.760;2022-11-10T02:27:26;101361.06;;;8.13;100.00
70015;BME280;57358;51.094;6.760;2022-11-10T02:29:53;101384.47;;;8.17;100.00
70015;BME280;57358;51.094;6.760;2022-11-10T02:32:19;101398.13;;;8.26;100.00
70015;BME280;57358;51.094;6.760;2022-11-10T02:34:46;101409.47;;;8.26;100.00
70015;BME280;57358;51.094;6.760;2022-11-10T02:37:12;101418.72;;;8.38;100.00
70015;BME280;57358;51.094;6.760;2022-11-10T02:39:38;101284.63;;;7.50;100.00
70015;BME280;57358;51.094;6.760;2022-11-10T02:42:05;101380.47;;;8.06;100.00
70015;BME280;57358;51.094;6.760;2022-11-10T02:44:36;101381.47;;;8.02;100.00
70015;BME280;57358;51.094;6.760;2022-11-10T02:47:03;101316.09;;;7.73;100.00
70015;BME280;57358;51.094;6.760;2022-11-10T02:49:30;101348.66;;;7.91;100.00
70015;BME280;57358;51.094;6.760;2022-11-10T02:51:56;101282.91;;;7.49;100.00
70015;BME280;57358;51.094;6.760;2022-11-10T02:54:22;101355.66;;;7.91;100.00
70015;BME280;57358;51.094;6.760;2022-11-10T02:56:49;101359.63;;;8.04;100.00
70015;BME280;57358;51.094;6.760;2022-11-10T02:59:15;101409.25;;;8.34;100.00
70015;BME280;57358;51.094;6.760;2022-11-10T03:01:41;101407.94;;;8.19;100.00
70015;BME280;57358;51.094;6.760;2022-11-10T03:04:08;101419.94;;;8.26;100.00
70015;BME280;57358;51.094;6.760;2022-11-10T03:06:34;101416.03;;;8.11;100.00
70015;BME280;57358;51.094;6.760;2022-11-10T03:09:02;101440.09;;;8.23;100.00
70015;BME280;57358;51.094;6.760;2022-11-10T03:11:28;101379.69;;;7.74;100.00
70015;BME280;57358;51.094;6.760;2022-11-10T03:13:57;101450.78;;;8.15;100.00
70015;BME280;57358;51.094;6.760;2022-11-10T03:16:27;101253.22;;;6.92;100.00
70015;BME280;57358;51.094;6.760;2022-11-10T03:18:53;101408.97;;;7.85;100.00
70015;BME280;57358;51.094;6.760;2022-11-10T03:21:20;101396.19;;;7.76;100.00
70015;BME280;57358;51.094;6.760;2022-11-10T03:23:46;101451.69;;;8.14;100.00
70015;BME280;57358;51.094;6.760;2022-11-10T03:26:12;101457.78;;;8.14;100.00
70015;BME280;57358;51.094;6.760;2022-11-10T03:28:39;101451.59;;;8.17;100.00
70015;BME280;57358;51.094;6.760;2022-11-10T03:31:05;101432.59;;;8.12;100.00
70015;BME280;57358;51.094;6.760;2022-11-10T03:33:32;101440.09;;;8.23;100.00
70015;BME280;57358;51.094;6.760;2022-11-10T03:35:58;101382.72;;;7.90;100.00
70015;BME280;57358;51.094;6.760;2022-11-10T03:38:25;101403.47;;;7.94;100.00
70015;BME280;57358;51.094;6.760;2022-11-10T03:40:51;101412.75;;;8.05;100.00
70015;BME280;57358;51.094;6.760;2022-11-10T03:43:37;101456.56;;;8.26;100.00
70015;BME280;57358;51.094;6.760;2022-11-10T03:46:04;101473.66;;;8.36;100.00
70015;BME280;57358;51.094;6.760;2022-11-10T03:48:30;101404.50;;;7.89;100.00
70015;BME280;57358;51.094;6.760;2022-11-10T03:50:56;101406.03;;;7.96;100.00
70015;BME280;57358;51.094;6.760;2022-11-10T03:53:23;101449.97;;;8.13;100.00
70015;BME280;57358;51.094;6.760;2022-11-10T03:55:50;101291.38;;;6.96;100.00
70015;BME280;57358;51.094;6.760;2022-11-10T03:58:16;101461.78;;;7.96;100.00
70015;BME280;57358;51.094;6.760;2022-11-10T04:00:42;101425.25;;;7.64;100.00
70015;BME280;57358;51.094;6.760;2022-11-10T04:03:09;101498.09;;;8.06;100.00
70015;BME280;57358;51.094;6.760;2022-11-10T04:05:35;101426.47;;;7.52;100.00
70015;BME280;57358;51.094;6.760;2022-11-10T04:08:20;101503.84;;;7.87;100.00
70015;BME280;57358;51.094;6.760;2022-11-10T04:11:05;101500.91;;;7.68;100.00
70015;BME280;57358;51.094;6.760;2022-11-10T04:13:31;101530.63;;;7.95;100.00
70015;BME280;57358;51.094;6.760;2022-11-10T04:16:16;101403.91;;;7.16;100.00
70015;BME280;57358;51.094;6.760;2022-11-10T04:18:43;101507.31;;;7.56;100.00
70015;BME280;57358;51.094;6.760;2022-11-10T04:21:09;101514.81;;;7.69;100.00
70015;BME280;57358;51.094;6.760;2022-11-10T04:23:37;101514.41;;;7.51;100.00
70015;BME280;57358;51.094;6.760;2022-11-10T04:26:06;101527.88;;;7.69;100.00
70015;BME280;57358;51.094;6.760;2022-11-10T04:28:53;101382.13;;;6.85;100.00
70015;BME280;57358;51.094;6.760;2022-11-10T04:31:21;101550.94;;;7.86;100.00
70015;BME280;57358;51.094;6.760;2022-11-10T04:33:48;101559.75;;;7.82;100.00
70015;BME280;57358;51.094;6.760;2022-11-10T04:36:19;101532.28;;;7.67;100.00
70015;BME280;57358;51.094;6.760;2022-11-10T04:38:46;101497.88;;;7.51;100.00
70015;BME280;57358;51.094;6.760;2022-11-10T04:41:12;101553.59;;;7.84;100.00
70015;BME280;57358;51.094;6.760;2022-11-10T04:43:39;101535.31;;;7.84;100.00
70015;BME280;57358;51.094;6.760;2022-11-10T04:46:07;101521.03;;;7.65;100.00
70015;BME280;57358;51.094;6.760;2022-11-10T04:48:38;101559.84;;;7.78;100.00
70015;BME280;57358;51.094;6.760;2022-11-10T04:51:06;101547.06;;;7.68;100.00
70015;BME280;57358;51.094;6.760;2022-11-10T04:53:32;101577.22;;;7.79;100.00
70015;BME280;57358;51.094;6.760;2022-11-10T04:55:59;101575.56;;;7.77;100.00
70015;BME280;57358;51.094;6.760;2022-11-10T04:58:25;101585.31;;;7.70;100.00
70015;BME280;57358;51.094;6.760;2022-11-10T05:00:52;101549.38;;;7.46;100.00
70015;BME280;57358;51.094;6.760;2022-11-10T05:03:18;101607.88;;;7.73;100.00
70015;BME280;57358;51.094;6.760;2022-11-10T05:05:45;101530.03;;;7.18;100.00
70015;BME280;57358;51.094;6.760;2022-11-10T05:08:11;101453.00;;;6.68;100.00
70015;BME280;57358;51.094;6.760;2022-11-10T05:10:38;101606.75;;;7.49;100.00
70015;BME280;57358;51.094;6.760;2022-11-10T05:13:04;101585.31;;;7.36;100.00
70015;BME280;57358;51.094;6.760;2022-11-10T05:15:31;101629.97;;;7.61;100.00
70015;BME280;57358;51.094;6.760;2022-11-10T05:17:58;101634.38;;;7.57;100.00
70015;BME280;57358;51.094;6.760;2022-11-10T05:20:26;101560.66;;;7.12;100.00
70015;BME280;57358;51.094;6.760;2022-11-10T05:22:52;101641.34;;;7.58;100.00
70015;BME280;57358;51.094;6.760;2022-11-10T05:25:39;101625.22;;;7.41;100.00
70015;BME280;57358;51.094;6.760;2022-11-10T05:28:08;101593.47;;;7.22;100.00
70015;BME280;57358;51.094;6.760;2022-11-10T05:30:35;101633.09;;;7.39;100.00
70015;BME280;57358;51.094;6.760;2022-11-10T05:33:02;101593.66;;;7.14;100.00
70015;BME280;57358;51.094;6.760;2022-11-10T05:35:29;101658.13;;;7.50;100.00
70015;BME280;57358;51.094;6.760;2022-11-10T05:37:55;101600.66;;;7.12;100.00
70015;BME280;57358;51.094;6.760;2022-11-10T05:40:22;101648.88;;;7.35;100.00
70015;BME280;57358;51.094;6.760;2022-11-10T05:42:50;101616.25;;;7.15;100.00
70015;BME280;57358;51.094;6.760;2022-11-10T05:45:23;101630.09;;;7.19;100.00
70015;BME280;57358;51.094;6.760;2022-11-10T05:47:50;101668.09;;;7.32;100.00
70015;BME280;57358;51.094;6.760;2022-11-10T05:50:18;101499.88;;;6.32;100.00
70015;BME280;57358;51.094;6.760;2022-11-10T05:52:50;101686.06;;;7.45;100.00
70015;BME280;57358;51.094;6.760;2022-11-10T05:55:20;101691.34;;;7.42;100.00
70015;BME280;57358;51.094;6.760;2022-11-10T05:57:48;101706.19;;;7.39;100.00
70015;BME280;57358;51.094;6.760;2022-11-10T06:00:17;101647.84;;;7.03;100.00
70015;BME280;57358;51.094;6.760;2022-11-10T06:02:58;101697.81;;;7.27;100.00
70015;BME280;57358;51.094;6.760;2022-11-10T06:05:24;101695.44;;;7.16;100.00
70015;BME280;57358;51.094;6.760;2022-11-10T06:07:56;101631.88;;;6.78;100.00
70015;BME280;57358;51.094;6.760;2022-11-10T06:10:23;101717.81;;;7.28;100.00
70015;BME280;57358;51.094;6.760;2022-11-10T06:12:50;101718.78;;;7.24;100.00
70015;BME280;57358;51.094;6.760;2022-11-10T06:15:16;101715.31;;;7.22;100.00
70015;BME280;57358;51.094;6.760;2022-11-10T06:17:43;101723.09;;;7.25;100.00
70015;BME280;57358;51.094;6.760;2022-11-10T06:20:11;101719.84;;;7.13;100.00
70015;BME280;57358;51.094;6.760;2022-11-10T06:22:38;101563.38;;;6.28;100.00
70015;BME280;57358;51.094;6.760;2022-11-10T06:25:06;101587.41;;;6.44;100.00
70015;BME280;57358;51.094;6.760;2022-11-10T06:27:32;101660.44;;;6.86;100.00
70015;BME280;57358;51.094;6.760;2022-11-10T06:29:59;101740.34;;;7.32;100.00
70015;BME280;57358;51.094;6.760;2022-11-10T06:32:25;101736.09;;;7.28;100.00
70015;BME280;57358;51.094;6.760;2022-11-10T06:34:52;101683.84;;;6.87;100.00
70015;BME280;57358;51.094;6.760;2022-11-10T06:37:25;101735.38;;;7.19;100.00
70015;BME280;57358;51.094;6.760;2022-11-10T06:39:51;101735.41;;;7.18;100.00
70015;BME280;57358;51.094;6.760;2022-11-10T06:42:18;101567.09;;;6.16;100.00
70015;BME280;57358;51.094;6.760;2022-11-10T06:44:44;101743.44;;;7.09;100.00
70015;BME280;57358;51.094;6.760;2022-11-10T06:47:10;101608.56;;;6.27;100.00
70015;BME280;57358;51.094;6.760;2022-11-10T06:49:37;101743.53;;;7.04;100.00
70015;BME280;57358;51.094;6.760;2022-11-10T06:52:03;101752.19;;;7.06;100.00
70015;BME280;57358;51.094;6.760;2022-11-10T06:54:30;101785.78;;;7.23;100.00
70015;BME280;57358;51.094;6.760;2022-11-10T06:56:56;101764.22;;;7.13;100.00
70015;BME280;57358;51.094;6.760;2022-11-10T06:59:22;101730.94;;;6.81;100.00
70015;BME280;57358;51.094;6.760;2022-11-10T07:01:49;101733.34;;;6.92;100.00
70015;BME280;57358;51.094;6.760;2022-11-10T07:04:15;101792.91;;;7.15;100.00
70015;BME280;57358;51.094;6.760;2022-11-10T07:06:46;101740.38;;;6.88;100.00
70015;BME280;57358;51.094;6.760;2022-11-10T07:09:13;101762.69;;;7.03;100.00
70015;BME280;57358;51.094;6.760;2022-11-10T07:11:40;101777.13;;;7.19;100.00
70015;BME280;57358;51.094;6.760;2022-11-10T07:14:07;101734.88;;;7.02;100.00
70015;BME280;57358;51.094;6.760;2022-11-10T07:16:33;101761.66;;;7.12;100.00
70015;BME280;57358;51.094;6.760;2022-11-10T07:19:00;101819.97;;;7.53;100.00
70015;BME280;57358;51.094;6.760;2022-11-10T07:21:26;101746.91;;;7.09;100.00
70015;BME280;57358;51.094;6.760;2022-11-10T07:23:52;101783.84;;;7.33;100.00
70015;BME280;57358;51.094;6.760;2022-11-10T07:26:19;101754.56;;;7.17;100.00
70015;BME280;57358;51.094;6.760;2022-11-10T07:28:45;101841.28;;;7.73;100.00
70015;BME280;57358;51.094;6.760;2022-11-10T07:31:12;101861.03;;;7.87;100.00
70015;BME280;57358;51.094;6.760;2022-11-10T07:33:38;101824.75;;;7.73;100.00
70015;BME280;57358;51.094;6.760;2022-11-10T07:36:05;101858.44;;;7.87;100.00
70015;BME280;57358;51.094;6.760;2022-11-10T07:38:32;101879.84;;;8.04;100.00
70015;BME280;57358;51.094;6.760;2022-11-10T07:40:59;101851.16;;;7.99;100.00
70015;BME280;57358;51.094;6.760;2022-11-10T07:43:25;101872.56;;;8.17;100.00
70015;BME280;57358;51.094;6.760;2022-11-10T07:45:52;101873.25;;;8.24;100.00
70015;BME280;57358;51.094;6.760;2022-11-10T07:48:18;101849.13;;;8.14;100.00
70015;BME280;57358;51.094;6.760;2022-11-10T07:50:45;101789.78;;;7.80;100.00
70015;BME280;57358;51.094;6.760;2022-11-10T07:53:13;101823.09;;;8.08;100.00
70015;BME280;57358;51.094;6.760;2022-11-10T07:55:42;101674.56;;;7.16;100.00
70015;BME280;57358;51.094;6.760;2022-11-10T07:58:10;101870.25;;;8.42;100.00
70015;BME280;57358;51.094;6.760;2022-11-10T08:00:37;101887.22;;;8.62;100.00
70015;BME280;57358;51.094;6.760;2022-11-10T08:03:06;101853.53;;;8.48;100.00
70015;BME280;57358;51.094;6.760;2022-11-10T08:05:33;101828.75;;;8.27;100.00
70015;BME280;57358;51.094;6.760;2022-11-10T08:08:00;101862.13;;;8.53;100.00
70015;BME280;57358;51.094;6.760;2022-11-10T08:10:27;101911.75;;;8.92;100.00
70015;BME280;57358;51.094;6.760;2022-11-10T08:12:56;101873.06;;;8.70;100.00
70015;BME280;57358;51.094;6.760;2022-11-10T08:15:24;101835.13;;;8.52;100.00
70015;BME280;57358;51.094;6.760;2022-11-10T08:17:51;101920.78;;;9.14;100.00
70015;BME280;57358;51.094;6.760;2022-11-10T08:20:22;101821.84;;;8.60;100.00
70015;BME280;57358;51.094;6.760;2022-11-10T08:22:55;101929.09;;;9.30;100.00
70015;BME280;57358;51.094;6.760;2022-11-10T08:25:25;101908.44;;;9.18;100.00
70015;BME280;57358;51.094;6.760;2022-11-10T08:28:04;101947.00;;;9.46;100.00
70015;BME280;57358;51.094;6.760;2022-11-10T08:30:32;101944.97;;;9.55;100.00
70015;BME280;57358;51.094;6.760;2022-11-10T08:33:00;101944.75;;;9.63;100.00
70015;BME280;57358;51.094;6.760;2022-11-10T08:35:29;101947.13;;;9.72;100.00
70015;BME280;57358;51.094;6.760;2022-11-10T08:37:56;101822.53;;;8.99;100.00
70015;BME280;57358;51.094;6.760;2022-11-10T08:40:23;101878.13;;;9.42;100.00
70015;BME280;57358;51.094;6.760;2022-11-10T08:42:57;101934.75;;;9.77;100.00
70015;BME280;57358;51.094;6.760;2022-11-10T08:45:25;101987.03;;;10.13;100.00
70015;BME280;57358;51.094;6.760;2022-11-10T08:47:58;101974.72;;;10.15;100.00
70015;BME280;57358;51.094;6.760;2022-11-10T08:50:26;101930.16;;;9.84;100.00
70015;BME280;57358;51.094;6.760;2022-11-10T08:52:52;101916.91;;;9.90;100.00
70015;BME280;57358;51.094;6.760;2022-11-10T08:55:19;101911.69;;;9.89;100.00
70015;BME280;57358;51.094;6.760;2022-11-10T08:57:47;102025.94;;;10.58;100.00
70015;BME280;57358;51.094;6.760;2022-11-10T09:00:15;102033.50;;;10.68;100.00
70015;BME280;57358;51.094;6.760;2022-11-10T09:02:41;102041.31;;;10.71;100.00
70015;BME280;57358;51.094;6.760;2022-11-10T09:05:08;102050.00;;;10.73;100.00
70015;BME280;57358;51.094;6.760;2022-11-10T09:07:45;102005.19;;;10.51;100.00
70015;BME280;57358;51.094;6.760;2022-11-10T09:10:12;101910.47;;;10.01;100.00
70015;BME280;57358;51.094;6.760;2022-11-10T09:12:40;102025.22;;;10.82;100.00
70015;BME280;57358;51.094;6.760;2022-11-10T09:15:08;102053.22;;;11.09;100.00
70015;BME280;57358;51.094;6.760;2022-11-10T09:17:36;102064.41;;;11.14;100.00
70015;BME280;57358;51.094;6.760;2022-11-10T09:20:04;102060.53;;;11.26;100.00
70015;BME280;57358;51.094;6.760;2022-11-10T09:22:33;102072.41;;;11.38;100.00
70015;BME280;57358;51.094;6.760;2022-11-10T09:25:00;102075.75;;;11.43;100.00
70015;BME280;57358;51.094;6.760;2022-11-10T09:27:27;102079.78;;;11.53;100.00
70015;BME280;57358;51.094;6.760;2022-11-10T09:29:53;102071.72;;;11.58;100.00
70015;BME280;57358;51.094;6.760;2022-11-10T09:32:19;102045.59;;;11.53;100.00
70015;BME280;57358;51.094;6.760;2022-11-10T09:34:46;101999.94;;;11.31;100.00
70015;BME280;57358;51.094;6.760;2022-11-10T09:37:18;102040.97;;;11.60;100.00
70015;BME280;57358;51.094;6.760;2022-11-10T09:39:44;102090.38;;;12.02;100.00
70015;BME280;57358;51.094;6.760;2022-11-10T09:42:34;102109.38;;;12.10;100.00
70015;BME280;57358;51.094;6.760;2022-11-10T09:45:10;102091.44;;;12.22;100.00
70015;BME280;57358;51.094;6.760;2022-11-10T09:48:05;102114.94;;;12.26;100.00
70015;BME280;57358;51.094;6.760;2022-11-10T09:53:13;102119.34;;;12.51;100.00
70015;BME280;57358;51.094;6.760;2022-11-10T09:55:59;102082.09;;;12.36;100.00
70015;BME280;57358;51.094;6.760;2022-11-10T09:58:39;102105.94;;;12.57;100.00
70015;BME280;57358;51.094;6.760;2022-11-10T10:01:17;102131.94;;;12.88;100.00
70015;BME280;57358;51.094;6.760;2022-11-10T10:03:53;102109.03;;;12.90;100.00
70015;BME280;57358;51.094;6.760;2022-11-10T10:06:24;102136.31;;;13.11;100.00
70015;BME280;57358;51.094;6.760;2022-11-10T10:09:33;102139.13;;;13.29;100.00
70015;BME280;57358;51.094;6.760;2022-11-10T10:14:47;102104.97;;;13.26;97.99
70015;BME280;57358;51.094;6.760;2022-11-10T10:17:30;102132.09;;;13.51;96.71
70015;BME280;57358;51.094;6.760;2022-11-10T10:22:48;102135.00;;;13.66;94.93
70015;BME280;57358;51.094;6.760;2022-11-10T10:25:22;102070.56;;;13.29;94.93
70015;BME280;57358;51.094;6.760;2022-11-10T10:27:57;102086.31;;;13.52;94.16
70015;BME280;57358;51.094;6.760;2022-11-10T10:30:28;102111.72;;;13.75;92.97
70015;BME280;57358;51.094;6.760;2022-11-10T10:32:59;102144.66;;;14.08;92.22
70015;BME280;57358;51.094;6.760;2022-11-10T10:35:28;102037.66;;;13.60;91.38
70015;BME280;57358;51.094;6.760;2022-11-10T10:37:56;102066.94;;;13.74;90.27
70015;BME280;57358;51.094;6.760;2022-11-10T10:40:23;102133.84;;;14.33;90.06
70015;BME280;57358;51.094;6.760;2022-11-10T10:42:50;102109.56;;;14.25;90.09
70015;BME280;57358;51.094;6.760;2022-11-10T10:45:22;102099.44;;;14.34;89.06
70015;BME280;57358;51.094;6.760;2022-11-10T10:47:54;102125.19;;;14.69;87.80
70015;BME280;57358;51.094;6.760;2022-11-10T10:53:19;102113.06;;;14.84;86.12
70015;BME280;57358;51.094;6.760;2022-11-10T10:55:51;102110.91;;;14.92;85.13
70015;BME280;57358;51.094;6.760;2022-11-10T10:58:23;102107.19;;;14.96;84.35
70015;BME280;57358;51.094;6.760;2022-11-10T11:00:59;102090.53;;;14.94;83.40
70015;BME280;57358;51.094;6.760;2022-11-10T11:06:05;102036.34;;;14.66;81.71
70015;BME280;57358;51.094;6.760;2022-11-10T11:08:32;102008.22;;;14.65;81.81
70015;BME280;57358;51.094;6.760;2022-11-10T11:11:07;102079.00;;;15.14;81.76
70015;BME280;57358;51.094;6.760;2022-11-10T11:13:34;102038.16;;;15.02;79.99
70015;BME280;57358;51.094;6.760;2022-11-10T11:16:05;102088.88;;;15.28;80.42
70015;BME280;57358;51.094;6.760;2022-11-10T11:18:34;102100.25;;;15.30;79.80
70015;BME280;57358;51.094;6.760;2022-11-10T11:21:27;102059.91;;;14.90;79.31
70015;BME280;57358;51.094;6.760;2022-11-10T11:24:08;101933.16;;;14.14;79.09
70015;BME280;57358;51.094;6.760;2022-11-10T11:29:35;102104.75;;;15.63;77.72
70015;BME280;57358;51.094;6.760;2022-11-10T11:35:13;102091.38;;;15.66;74.75
70015;BME280;57358;51.094;6.760;2022-11-10T11:37:49;102074.28;;;15.73;73.02
70015;BME280;57358;51.094;6.760;2022-11-10T11:40:44;102038.69;;;15.61;71.01
70015;BME280;57358;51.094;6.760;2022-11-10T11:43:34;102044.22;;;15.56;70.37
70015;BME280;57358;51.094;6.760;2022-11-10T11:46:11;102049.25;;;15.61;70.28
70015;BME280;57358;51.094;6.760;2022-11-10T11:48:54;102058.69;;;15.67;69.97
70015;BME280;57358;51.094;6.760;2022-11-10T11:51:39;101967.75;;;15.17;69.83
70015;BME280;57358;51.094;6.760;2022-11-10T11:56:46;101970.50;;;15.15;68.97
70015;BME280;57358;51.094;6.760;2022-11-10T12:02:15;101996.78;;;15.36;69.41
70015;BME280;57358;51.094;6.760;2022-11-10T12:05:01;101982.69;;;15.35;68.42
70015;BME280;57358;51.094;6.760;2022-11-10T12:07:45;102028.94;;;15.79;67.52
70015;BME280;57358;51.094;6.760;2022-11-10T12:10:56;102048.09;;;15.84;67.42
70015;BME280;57358;51.094;6.760;2022-11-10T12:13:32;102045.72;;;15.80;68.10
70015;BME280;57358;51.094;6.760;2022-11-10T12:18:45;102066.53;;;16.19;68.70
70015;BME280;57358;51.094;6.760;2022-11-10T12:21:22;102040.31;;;16.14;68.02
70015;BME280;57358;51.094;6.760;2022-11-10T12:32:25;101972.19;;;15.67;67.07
70015;BME280;57358;51.094;6.760;2022-11-10T12:37:28;101976.50;;;15.70;67.93
70015;BME280;57358;51.094;6.760;2022-11-10T12:40:02;101985.84;;;15.93;66.92
70015;BME280;57358;51.094;6.760;2022-11-10T12:42:32;101998.53;;;16.04;66.14
70015;BME280;57358;51.094;6.760;2022-11-10T12:47:41;101931.38;;;15.71;65.43
70015;BME280;57358;51.094;6.760;2022-11-10T12:52:56;102004.25;;;16.12;66.25
70015;BME280;57358;51.094;6.760;2022-11-10T12:55:33;101932.22;;;15.89;64.56
70015;BME280;57358;51.094;6.760;2022-11-10T12:58:03;101995.28;;;16.14;65.17
70015;BME280;57358;51.094;6.760;2022-11-10T13:00:35;101997.44;;;16.08;65.81
70015;BME280;57358;51.094;6.760;2022-11-10T13:03:12;102000.91;;;16.08;65.31
70015;BME280;57358;51.094;6.760;2022-11-10T13:05:41;102006.81;;;15.98;65.22
70015;BME280;57358;51.094;6.760;2022-11-10T13:11:03;102011.50;;;15.92;65.56
70015;BME280;57358;51.094;6.760;2022-11-10T13:13:40;101980.06;;;15.69;66.61
70015;BME280;57358;51.094;6.760;2022-11-10T13:16:09;102037.56;;;16.00;66.26
70015;BME280;57358;51.094;6.760;2022-11-10T13:21:02;102013.88;;;15.64;67.17
70015;BME280;57358;51.094;6.760;2022-11-10T13:29:25;101894.53;;;14.84;67.07
70015;BME280;57358;51.094;6.760;2022-11-10T13:31:55;101963.63;;;15.29;67.46
70015;BME280;57358;51.094;6.760;2022-11-10T13:34:28;102014.19;;;15.58;67.35
70015;BME280;57358;51.094;6.760;2022-11-10T13:36:55;102050.59;;;15.70;68.12
70015;BME280;57358;51.094;6.760;2022-11-10T13:39:24;102049.19;;;15.63;67.57
70015;BME280;57358;51.094;6.760;2022-11-10T13:42:02;102045.44;;;15.49;67.66
70015;BME280;57358;51.094;6.760;2022-11-10T13:44:41;102017.78;;;15.22;68.35
70015;BME280;57358;51.094;6.760;2022-11-10T13:49:57;102044.84;;;15.27;68.31
70015;BME280;57358;51.094;6.760;2022-11-10T13:52:29;102041.31;;;15.09;67.55
70015;BME280;57358;51.094;6.760;2022-11-10T13:57:58;102050.25;;;14.89;68.24
70015;BME280;57358;51.094;6.760;2022-11-10T14:00:29;102003.22;;;14.40;69.08
70015;BME280;57358;51.094;6.760;2022-11-10T14:02:58;102007.66;;;14.40;69.41
70015;BME280;57358;51.094;6.760;2022-11-10T14:08:03;102066.22;;;14.68;69.42
70015;BME280;57358;51.094;6.760;2022-11-10T14:10:53;102029.88;;;14.35;69.91